New York/Central Park, New York
Current Conditions -  °F | °C
As of 4:51 AM on Friday 24 Oct 2014 (Local Time) from KNYC Reporting Station
Scattered Clouds Scattered Clouds  
Wind Chill: 51°   Ceiling: Unl
Heat Index: 51°   Visibility: 10mi
Dew Point: 42°   Wind: 3mph
Humidity: 71%   Direction: 290°WNW
Pressure: 29.81"   Gusts: NA
Location:  40.79°N, 73.96°W
Report Text: KNYC 240851Z AUTO 29003KT 10SM SCT044 11/06 A2981 RMK AO2 SLP086 T01060056 51007 $
Loading
Personal Weather Stations






























Interactive Weather Map
Tropical Storm Tracking
New forecast layout! Learn more

10-Day Weather Forecast

Advertisements
Track Severe Weather on mobile